sensor_id;sensor_type;location;lat;lon;timestamp;temperature;humidity
65050;DHT22;52090;51.224;-2.328;2022-12-13T00:02:07;2.80;98.10
65050;DHT22;52090;51.224;-2.328;2022-12-13T00:05:49;2.80;98.10
65050;DHT22;52090;51.224;-2.328;2022-12-13T00:09:31;2.80;98.10
65050;DHT22;52090;51.224;-2.328;2022-12-13T00:13:13;2.80;98.10
65050;DHT22;52090;51.224;-2.328;2022-12-13T00:16:55;2.70;98.20
65050;DHT22;52090;51.224;-2.328;2022-12-13T00:20:38;2.70;98.50
65050;DHT22;52090;51.224;-2.328;2022-12-13T00:24:20;2.60;98.20
65050;DHT22;52090;51.224;-2.328;2022-12-13T00:28:02;2.70;98.60
65050;DHT22;52090;51.224;-2.328;2022-12-13T00:31:44;2.70;98.30
65050;DHT22;52090;51.224;-2.328;2022-12-13T00:35:42;2.60;98.30
65050;DHT22;52090;51.224;-2.328;2022-12-13T00:39:24;2.60;98.30
65050;DHT22;52090;51.224;-2.328;2022-12-13T00:43:05;2.60;98.30
65050;DHT22;52090;51.224;-2.328;2022-12-13T00:46:47;2.60;98.30
65050;DHT22;52090;51.224;-2.328;2022-12-13T00:50:32;2.60;98.30
65050;DHT22;52090;51.224;-2.328;2022-12-13T00:54:14;2.60;98.40
65050;DHT22;52090;51.224;-2.328;2022-12-13T00:57:57;2.50;98.30
65050;DHT22;52090;51.224;-2.328;2022-12-13T01:01:38;2.50;98.30
65050;DHT22;52090;51.224;-2.328;2022-12-13T01:05:20;2.50;98.30
65050;DHT22;52090;51.224;-2.328;2022-12-13T01:09:26;2.40;98.20
65050;DHT22;52090;51.224;-2.328;2022-12-13T01:13:10;2.40;98.50
65050;DHT22;52090;51.224;-2.328;2022-12-13T01:16:52;2.40;98.20
65050;DHT22;52090;51.224;-2.328;2022-12-13T01:20:37;2.40;98.20
65050;DHT22;52090;51.224;-2.328;2022-12-13T01:24:20;2.40;98.40
65050;DHT22;52090;51.224;-2.328;2022-12-13T01:28:03;2.30;98.00
65050;DHT22;52090;51.224;-2.328;2022-12-13T01:31:45;2.30;97.70
65050;DHT22;52090;51.224;-2.328;2022-12-13T01:35:27;2.30;97.80
65050;DHT22;52090;51.224;-2.328;2022-12-13T01:39:11;2.20;97.60
65050;DHT22;52090;51.224;-2.328;2022-12-13T01:42:56;2.20;97.50
65050;DHT22;52090;51.224;-2.328;2022-12-13T01:46:38;2.20;97.50
65050;DHT22;52090;51.224;-2.328;2022-12-13T01:50:24;2.20;97.40
65050;DHT22;52090;51.224;-2.328;2022-12-13T01:54:09;2.10;97.30
65050;DHT22;52090;51.224;-2.328;2022-12-13T01:57:54;2.10;97.30
65050;DHT22;52090;51.224;-2.328;2022-12-13T02:01:37;2.10;97.20
65050;DHT22;52090;51.224;-2.328;2022-12-13T02:05:37;2.10;97.20
65050;DHT22;52090;51.224;-2.328;2022-12-13T02:09:21;2.10;97.10
65050;DHT22;52090;51.224;-2.328;2022-12-13T02:13:03;2.20;97.30
65050;DHT22;52090;51.224;-2.328;2022-12-13T02:32:51;2.00;96.50
65050;DHT22;52090;51.224;-2.328;2022-12-13T02:36:46;1.90;96.40
65050;DHT22;52090;51.224;-2.328;2022-12-13T02:40:44;1.90;96.40
65050;DHT22;52090;51.224;-2.328;2022-12-13T02:44:40;1.80;96.20
65050;DHT22;52090;51.224;-2.328;2022-12-13T02:48:30;1.80;96.50
65050;DHT22;52090;51.224;-2.328;2022-12-13T02:52:15;1.80;96.40
65050;DHT22;52090;51.224;-2.328;2022-12-13T02:56:03;1.80;96.40
65050;DHT22;52090;51.224;-2.328;2022-12-13T02:59:45;1.80;96.40
65050;DHT22;52090;51.224;-2.328;2022-12-13T03:03:54;1.70;96.30
65050;DHT22;52090;51.224;-2.328;2022-12-13T03:16:10;1.60;96.10
65050;DHT22;52090;51.224;-2.328;2022-12-13T03:19:53;1.60;96.10
65050;DHT22;52090;51.224;-2.328;2022-12-13T03:23:36;1.60;96.50
65050;DHT22;52090;51.224;-2.328;2022-12-13T03:27:18;1.60;96.30
65050;DHT22;52090;51.224;-2.328;2022-12-13T03:31:00;1.60;96.30
65050;DHT22;52090;51.224;-2.328;2022-12-13T03:34:42;1.50;96.30
65050;DHT22;52090;51.224;-2.328;2022-12-13T03:38:28;1.50;96.30
65050;DHT22;52090;51.224;-2.328;2022-12-13T03:42:10;1.50;96.30
65050;DHT22;52090;51.224;-2.328;2022-12-13T03:45:53;1.50;96.30
65050;DHT22;52090;51.224;-2.328;2022-12-13T03:49:35;1.60;96.40
65050;DHT22;52090;51.224;-2.328;2022-12-13T03:53:17;1.50;96.40
65050;DHT22;52090;51.224;-2.328;2022-12-13T03:57:12;1.50;96.40
65050;DHT22;52090;51.224;-2.328;2022-12-13T04:00:56;1.50;96.40
65050;DHT22;52090;51.224;-2.328;2022-12-13T04:04:37;1.50;96.40
65050;DHT22;52090;51.224;-2.328;2022-12-13T04:08:19;1.50;96.30
65050;DHT22;52090;51.224;-2.328;2022-12-13T04:12:03;1.50;96.30
65050;DHT22;52090;51.224;-2.328;2022-12-13T04:16:03;1.50;96.10
65050;DHT22;52090;51.224;-2.328;2022-12-13T04:19:45;1.50;96.20
65050;DHT22;52090;51.224;-2.328;2022-12-13T04:23:27;1.40;96.20
65050;DHT22;52090;51.224;-2.328;2022-12-13T04:27:09;1.40;96.20
65050;DHT22;52090;51.224;-2.328;2022-12-13T04:30:51;1.40;96.20
65050;DHT22;52090;51.224;-2.328;2022-12-13T04:34:33;1.40;96.20
65050;DHT22;52090;51.224;-2.328;2022-12-13T04:38:18;1.40;96.10
65050;DHT22;52090;51.224;-2.328;2022-12-13T04:42:00;1.40;96.20
65050;DHT22;52090;51.224;-2.328;2022-12-13T04:45:42;1.40;96.20
65050;DHT22;52090;51.224;-2.328;2022-12-13T04:49:24;1.40;96.20
65050;DHT22;52090;51.224;-2.328;2022-12-13T04:53:06;1.40;96.20
65050;DHT22;52090;51.224;-2.328;2022-12-13T04:56:48;1.40;96.20
65050;DHT22;52090;51.224;-2.328;2022-12-13T05:00:29;1.40;96.20
65050;DHT22;52090;51.224;-2.328;2022-12-13T05:04:11;1.40;96.20
65050;DHT22;52090;51.224;-2.328;2022-12-13T05:07:54;1.30;96.10
65050;DHT22;52090;51.224;-2.328;2022-12-13T05:11:36;1.40;96.10
65050;DHT22;52090;51.224;-2.328;2022-12-13T05:15:26;1.30;96.10
65050;DHT22;52090;51.224;-2.328;2022-12-13T05:19:08;1.30;96.10
65050;DHT22;52090;51.224;-2.328;2022-12-13T05:22:50;1.40;96.40
65050;DHT22;52090;51.224;-2.328;2022-12-13T05:26:32;1.30;96.10
65050;DHT22;52090;51.224;-2.328;2022-12-13T05:30:14;1.30;96.20
65050;DHT22;52090;51.224;-2.328;2022-12-13T05:33:56;1.40;96.20
65050;DHT22;52090;51.224;-2.328;2022-12-13T05:37:42;1.30;96.30
65050;DHT22;52090;51.224;-2.328;2022-12-13T05:41:25;1.30;96.30
65050;DHT22;52090;51.224;-2.328;2022-12-13T05:45:08;1.30;96.30
65050;DHT22;52090;51.224;-2.328;2022-12-13T05:48:50;1.40;96.40
65050;DHT22;52090;51.224;-2.328;2022-12-13T05:52:32;1.40;96.40
65050;DHT22;52090;51.224;-2.328;2022-12-13T05:56:13;1.40;96.40
65050;DHT22;52090;51.224;-2.328;2022-12-13T06:00:06;1.40;96.40
65050;DHT22;52090;51.224;-2.328;2022-12-13T06:04:08;1.40;96.40
65050;DHT22;52090;51.224;-2.328;2022-12-13T06:07:50;1.40;96.50
65050;DHT22;52090;51.224;-2.328;2022-12-13T06:11:37;1.40;96.40
65050;DHT22;52090;51.224;-2.328;2022-12-13T06:15:24;1.40;96.40
65050;DHT22;52090;51.224;-2.328;2022-12-13T06:19:15;1.40;96.50
65050;DHT22;52090;51.224;-2.328;2022-12-13T06:22:58;1.40;96.50
65050;DHT22;52090;51.224;-2.328;2022-12-13T06:26:39;1.40;96.40
65050;DHT22;52090;51.224;-2.328;2022-12-13T06:30:21;1.40;96.70
65050;DHT22;52090;51.224;-2.328;2022-12-13T06:34:03;1.40;96.50
65050;DHT22;52090;51.224;-2.328;2022-12-13T06:37:56;1.40;96.40
65050;DHT22;52090;51.224;-2.328;2022-12-13T06:41:42;1.40;96.40
65050;DHT22;52090;51.224;-2.328;2022-12-13T06:45:24;1.40;96.50
65050;DHT22;52090;51.224;-2.328;2022-12-13T06:49:06;1.40;96.50
65050;DHT22;52090;51.224;-2.328;2022-12-13T06:52:48;1.40;96.50
65050;DHT22;52090;51.224;-2.328;2022-12-13T06:56:30;1.40;96.40
65050;DHT22;52090;51.224;-2.328;2022-12-13T07:00:12;1.40;96.50
65050;DHT22;52090;51.224;-2.328;2022-12-13T07:04:02;1.40;96.40
65050;DHT22;52090;51.224;-2.328;2022-12-13T07:07:44;1.40;96.50
65050;DHT22;52090;51.224;-2.328;2022-12-13T07:11:29;1.40;96.40
65050;DHT22;52090;51.224;-2.328;2022-12-13T07:15:11;1.40;96.40
65050;DHT22;52090;51.224;-2.328;2022-12-13T07:18:54;1.40;96.50
65050;DHT22;52090;51.224;-2.328;2022-12-13T07:22:42;1.40;96.50
65050;DHT22;52090;51.224;-2.328;2022-12-13T07:26:29;1.40;96.50
65050;DHT22;52090;51.224;-2.328;2022-12-13T07:30:11;1.40;96.50
65050;DHT22;52090;51.224;-2.328;2022-12-13T07:33:53;1.40;96.50
65050;DHT22;52090;51.224;-2.328;2022-12-13T07:37:35;1.40;96.50
65050;DHT22;52090;51.224;-2.328;2022-12-13T07:41:17;1.40;96.60
65050;DHT22;52090;51.224;-2.328;2022-12-13T07:45:05;1.40;96.70
65050;DHT22;52090;51.224;-2.328;2022-12-13T07:48:47;1.40;96.60
65050;DHT22;52090;51.224;-2.328;2022-12-13T07:52:29;1.40;96.50
65050;DHT22;52090;51.224;-2.328;2022-12-13T07:56:11;1.40;96.60
65050;DHT22;52090;51.224;-2.328;2022-12-13T07:59:54;1.40;96.60
65050;DHT22;52090;51.224;-2.328;2022-12-13T08:03:36;1.40;96.60
65050;DHT22;52090;51.224;-2.328;2022-12-13T08:07:18;1.40;96.60
65050;DHT22;52090;51.224;-2.328;2022-12-13T08:11:05;1.40;96.60
65050;DHT22;52090;51.224;-2.328;2022-12-13T08:14:47;1.40;96.60
65050;DHT22;52090;51.224;-2.328;2022-12-13T08:18:34;1.40;96.80
65050;DHT22;52090;51.224;-2.328;2022-12-13T08:22:16;1.40;96.60
65050;DHT22;52090;51.224;-2.328;2022-12-13T08:26:05;1.40;96.60
65050;DHT22;52090;51.224;-2.328;2022-12-13T08:29:47;1.40;96.60
65050;DHT22;52090;51.224;-2.328;2022-12-13T08:33:28;1.40;96.60
65050;DHT22;52090;51.224;-2.328;2022-12-13T08:37:11;1.40;96.60
65050;DHT22;52090;51.224;-2.328;2022-12-13T08:40:53;1.50;96.70
65050;DHT22;52090;51.224;-2.328;2022-12-13T08:44:39;1.50;96.90
65050;DHT22;52090;51.224;-2.328;2022-12-13T08:48:20;1.50;96.70
65050;DHT22;52090;51.224;-2.328;2022-12-13T08:52:03;1.50;96.70
65050;DHT22;52090;51.224;-2.328;2022-12-13T08:55:45;1.50;96.70
65050;DHT22;52090;51.224;-2.328;2022-12-13T08:59:27;1.50;96.80
65050;DHT22;52090;51.224;-2.328;2022-12-13T09:03:09;1.60;96.90
65050;DHT22;52090;51.224;-2.328;2022-12-13T09:06:51;1.60;96.90
65050;DHT22;52090;51.224;-2.328;2022-12-13T09:10:33;1.60;96.90
65050;DHT22;52090;51.224;-2.328;2022-12-13T09:14:19;1.60;96.80
65050;DHT22;52090;51.224;-2.328;2022-12-13T09:18:04;1.60;96.90
65050;DHT22;52090;51.224;-2.328;2022-12-13T09:21:46;1.70;97.00
65050;DHT22;52090;51.224;-2.328;2022-12-13T09:25:29;1.70;97.00
65050;DHT22;52090;51.224;-2.328;2022-12-13T09:29:18;1.70;97.00
65050;DHT22;52090;51.224;-2.328;2022-12-13T09:33:00;1.70;97.10
65050;DHT22;52090;51.224;-2.328;2022-12-13T09:37:01;1.80;97.10
65050;DHT22;52090;51.224;-2.328;2022-12-13T09:40:45;1.80;97.20
65050;DHT22;52090;51.224;-2.328;2022-12-13T09:44:37;1.80;97.20
65050;DHT22;52090;51.224;-2.328;2022-12-13T09:48:27;1.80;97.00
65050;DHT22;52090;51.224;-2.328;2022-12-13T09:52:15;1.90;97.30
65050;DHT22;52090;51.224;-2.328;2022-12-13T09:56:02;1.90;97.40
65050;DHT22;52090;51.224;-2.328;2022-12-13T09:59:51;1.90;97.50
65050;DHT22;52090;51.224;-2.328;2022-12-13T10:03:45;1.90;97.60
65050;DHT22;52090;51.224;-2.328;2022-12-13T10:07:27;2.00;97.60
65050;DHT22;52090;51.224;-2.328;2022-12-13T10:11:17;2.10;97.60
65050;DHT22;52090;51.224;-2.328;2022-12-13T10:15:01;2.10;97.30
65050;DHT22;52090;51.224;-2.328;2022-12-13T10:18:44;2.20;97.70
65050;DHT22;52090;51.224;-2.328;2022-12-13T10:22:26;2.20;97.60
65050;DHT22;52090;51.224;-2.328;2022-12-13T10:26:12;2.30;97.50
65050;DHT22;52090;51.224;-2.328;2022-12-13T10:30:23;2.30;97.40
65050;DHT22;52090;51.224;-2.328;2022-12-13T10:34:36;2.40;96.80
65050;DHT22;52090;51.224;-2.328;2022-12-13T10:38:26;2.40;96.60
65050;DHT22;52090;51.224;-2.328;2022-12-13T10:42:15;2.40;97.50
65050;DHT22;52090;51.224;-2.328;2022-12-13T10:46:04;2.50;97.60
65050;DHT22;52090;51.224;-2.328;2022-12-13T10:49:49;2.50;97.90
65050;DHT22;52090;51.224;-2.328;2022-12-13T10:57:35;2.60;97.70
65050;DHT22;52090;51.224;-2.328;2022-12-13T11:01:21;2.60;97.90
65050;DHT22;52090;51.224;-2.328;2022-12-13T11:09:13;2.70;97.20
65050;DHT22;52090;51.224;-2.328;2022-12-13T11:13:06;2.70;97.60
65050;DHT22;52090;51.224;-2.328;2022-12-13T11:17:08;2.80;98.00
65050;DHT22;52090;51.224;-2.328;2022-12-13T11:20:57;2.80;97.00
65050;DHT22;52090;51.224;-2.328;2022-12-13T11:24:40;2.80;97.70
65050;DHT22;52090;51.224;-2.328;2022-12-13T11:40:30;3.00;96.90
65050;DHT22;52090;51.224;-2.328;2022-12-13T11:48:57;3.00;97.70
65050;DHT22;52090;51.224;-2.328;2022-12-13T11:52:47;3.00;97.90
65050;DHT22;52090;51.224;-2.328;2022-12-13T11:56:39;3.00;98.20
65050;DHT22;52090;51.224;-2.328;2022-12-13T12:04:33;3.10;98.20
65050;DHT22;52090;51.224;-2.328;2022-12-13T12:08:21;3.20;97.60
65050;DHT22;52090;51.224;-2.328;2022-12-13T12:12:34;3.20;98.30
65050;DHT22;52090;51.224;-2.328;2022-12-13T12:20:20;3.30;98.30
65050;DHT22;52090;51.224;-2.328;2022-12-13T12:47:58;3.50;98.20
65050;DHT22;52090;51.224;-2.328;2022-12-13T12:52:20;3.50;98.20
65050;DHT22;52090;51.224;-2.328;2022-12-13T12:56:17;3.50;98.20
65050;DHT22;52090;51.224;-2.328;2022-12-13T13:00:13;3.50;97.80
65050;DHT22;52090;51.224;-2.328;2022-12-13T13:03:58;3.50;97.70
65050;DHT22;52090;51.224;-2.328;2022-12-13T13:07:58;3.50;98.20
65050;DHT22;52090;51.224;-2.328;2022-12-13T13:11:42;3.50;98.00
65050;DHT22;52090;51.224;-2.328;2022-12-13T13:22:56;3.50;98.30
65050;DHT22;52090;51.224;-2.328;2022-12-13T13:27:27;3.50;98.20
65050;DHT22;52090;51.224;-2.328;2022-12-13T13:31:09;3.60;97.00
65050;DHT22;52090;51.224;-2.328;2022-12-13T13:34:51;3.50;98.20
65050;DHT22;52090;51.224;-2.328;2022-12-13T13:38:49;3.50;98.00
65050;DHT22;52090;51.224;-2.328;2022-12-13T13:42:32;3.50;97.50
65050;DHT22;52090;51.224;-2.328;2022-12-13T13:46:13;3.50;98.10
65050;DHT22;52090;51.224;-2.328;2022-12-13T14:02:33;3.50;96.60
65050;DHT22;52090;51.224;-2.328;2022-12-13T14:27:17;3.50;96.80
65050;DHT22;52090;51.224;-2.328;2022-12-13T14:31:00;3.40;97.10
65050;DHT22;52090;51.224;-2.328;2022-12-13T14:34:43;3.40;97.80
65050;DHT22;52090;51.224;-2.328;2022-12-13T14:38:28;3.40;97.80
65050;DHT22;52090;51.224;-2.328;2022-12-13T14:42:23;3.40;97.80
65050;DHT22;52090;51.224;-2.328;2022-12-13T14:46:06;3.40;96.90
65050;DHT22;52090;51.224;-2.328;2022-12-13T14:49:53;3.50;97.90
65050;DHT22;52090;51.224;-2.328;2022-12-13T14:53:38;3.50;97.70
65050;DHT22;52090;51.224;-2.328;2022-12-13T14:57:23;3.50;97.70
65050;DHT22;52090;51.224;-2.328;2022-12-13T15:01:27;3.40;97.50
65050;DHT22;52090;51.224;-2.328;2022-12-13T15:05:26;3.40;96.50
65050;DHT22;52090;51.224;-2.328;2022-12-13T15:09:13;3.30;96.80
65050;DHT22;52090;51.224;-2.328;2022-12-13T15:12:56;3.30;97.30
65050;DHT22;52090;51.224;-2.328;2022-12-13T15:16:37;3.30;97.50
65050;DHT22;52090;51.224;-2.328;2022-12-13T15:20:24;3.20;97.50
65050;DHT22;52090;51.224;-2.328;2022-12-13T15:24:08;3.20;97.30
65050;DHT22;52090;51.224;-2.328;2022-12-13T15:27:53;3.20;97.30
65050;DHT22;52090;51.224;-2.328;2022-12-13T15:31:36;3.20;97.20
65050;DHT22;52090;51.224;-2.328;2022-12-13T15:35:25;3.20;97.40
65050;DHT22;52090;51.224;-2.328;2022-12-13T15:39:10;3.10;96.60
65050;DHT22;52090;51.224;-2.328;2022-12-13T15:42:58;3.10;97.00
65050;DHT22;52090;51.224;-2.328;2022-12-13T15:46:43;3.10;97.20
65050;DHT22;52090;51.224;-2.328;2022-12-13T15:50:43;3.00;97.10
65050;DHT22;52090;51.224;-2.328;2022-12-13T15:54:29;3.00;96.30
65050;DHT22;52090;51.224;-2.328;2022-12-13T15:58:26;3.00;97.20
65050;DHT22;52090;51.224;-2.328;2022-12-13T16:02:20;2.90;96.60
65050;DHT22;52090;51.224;-2.328;2022-12-13T16:06:02;3.00;96.80
65050;DHT22;52090;51.224;-2.328;2022-12-13T16:09:47;2.90;97.10
65050;DHT22;52090;51.224;-2.328;2022-12-13T16:13:35;2.90;97.10
65050;DHT22;52090;51.224;-2.328;2022-12-13T16:17:25;2.90;97.10
65050;DHT22;52090;51.224;-2.328;2022-12-13T16:21:08;2.90;96.90
65050;DHT22;52090;51.224;-2.328;2022-12-13T16:24:51;2.80;97.10
65050;DHT22;52090;51.224;-2.328;2022-12-13T16:28:33;2.80;97.10
65050;DHT22;52090;51.224;-2.328;2022-12-13T16:32:15;2.80;97.10
65050;DHT22;52090;51.224;-2.328;2022-12-13T16:35:56;2.80;97.20
65050;DHT22;52090;51.224;-2.328;2022-12-13T16:39:38;2.70;97.10
65050;DHT22;52090;51.224;-2.328;2022-12-13T16:43:22;2.80;97.20
65050;DHT22;52090;51.224;-2.328;2022-12-13T16:47:14;2.70;97.10
65050;DHT22;52090;51.224;-2.328;2022-12-13T16:51:10;2.80;96.30
65050;DHT22;52090;51.224;-2.328;2022-12-13T16:54:52;2.80;97.30
65050;DHT22;52090;51.224;-2.328;2022-12-13T16:58:34;2.80;97.20
65050;DHT22;52090;51.224;-2.328;2022-12-13T17:02:16;2.70;97.10
65050;DHT22;52090;51.224;-2.328;2022-12-13T17:05:58;2.70;97.00
65050;DHT22;52090;51.224;-2.328;2022-12-13T17:09:41;2.70;97.00
65050;DHT22;52090;51.224;-2.328;2022-12-13T17:13:23;2.70;97.00
65050;DHT22;52090;51.224;-2.328;2022-12-13T17:17:05;2.60;97.00
65050;DHT22;52090;51.224;-2.328;2022-12-13T17:20:47;2.60;96.90
65050;DHT22;52090;51.224;-2.328;2022-12-13T17:24:39;2.60;97.00
65050;DHT22;52090;51.224;-2.328;2022-12-13T17:28:20;2.60;97.00
65050;DHT22;52090;51.224;-2.328;2022-12-13T17:32:03;2.60;97.00
65050;DHT22;52090;51.224;-2.328;2022-12-13T17:35:45;2.70;97.00
65050;DHT22;52090;51.224;-2.328;2022-12-13T17:39:27;2.60;96.80
65050;DHT22;52090;51.224;-2.328;2022-12-13T17:43:09;2.60;97.30
65050;DHT22;52090;51.224;-2.328;2022-12-13T17:47:11;2.60;96.90
65050;DHT22;52090;51.224;-2.328;2022-12-13T17:50:53;2.60;96.80
65050;DHT22;52090;51.224;-2.328;2022-12-13T17:54:35;2.60;96.70
65050;DHT22;52090;51.224;-2.328;2022-12-13T17:58:17;2.60;96.70
65050;DHT22;52090;51.224;-2.328;2022-12-13T18:01:59;2.50;96.80
65050;DHT22;52090;51.224;-2.328;2022-12-13T18:05:41;2.50;96.80
65050;DHT22;52090;51.224;-2.328;2022-12-13T18:09:23;2.50;96.70
65050;DHT22;52090;51.224;-2.328;2022-12-13T18:13:04;2.50;97.00
65050;DHT22;52090;51.224;-2.328;2022-12-13T18:16:47;2.50;96.70
65050;DHT22;52090;51.224;-2.328;2022-12-13T18:20:28;2.50;97.00
65050;DHT22;52090;51.224;-2.328;2022-12-13T18:24:10;2.50;96.60
65050;DHT22;52090;51.224;-2.328;2022-12-13T18:27:54;2.50;96.70
65050;DHT22;52090;51.224;-2.328;2022-12-13T18:31:41;2.40;96.70
65050;DHT22;52090;51.224;-2.328;2022-12-13T18:35:23;2.40;96.70
65050;DHT22;52090;51.224;-2.328;2022-12-13T18:39:05;2.40;96.60
65050;DHT22;52090;51.224;-2.328;2022-12-13T18:42:47;2.40;96.60
65050;DHT22;52090;51.224;-2.328;2022-12-13T18:46:31;2.40;96.40
65050;DHT22;52090;51.224;-2.328;2022-12-13T18:50:14;2.40;96.50
65050;DHT22;52090;51.224;-2.328;2022-12-13T18:53:56;2.40;96.60
65050;DHT22;52090;51.224;-2.328;2022-12-13T18:57:38;2.40;96.60
65050;DHT22;52090;51.224;-2.328;2022-12-13T19:01:23;2.40;96.60
65050;DHT22;52090;51.224;-2.328;2022-12-13T19:05:08;2.40;96.50
65050;DHT22;52090;51.224;-2.328;2022-12-13T19:08:53;2.40;96.60
65050;DHT22;52090;51.224;-2.328;2022-12-13T19:12:35;2.50;96.50
65050;DHT22;52090;51.224;-2.328;2022-12-13T19:16:19;2.40;96.50
65050;DHT22;52090;51.224;-2.328;2022-12-13T19:20:01;2.40;96.30
65050;DHT22;52090;51.224;-2.328;2022-12-13T19:23:44;2.40;96.50
65050;DHT22;52090;51.224;-2.328;2022-12-13T19:27:32;2.40;96.30
65050;DHT22;52090;51.224;-2.328;2022-12-13T19:31:14;2.40;96.30
65050;DHT22;52090;51.224;-2.328;2022-12-13T19:34:56;2.40;96.30
65050;DHT22;52090;51.224;-2.328;2022-12-13T19:38:39;2.40;96.30
65050;DHT22;52090;51.224;-2.328;2022-12-13T19:42:20;2.40;96.30
65050;DHT22;52090;51.224;-2.328;2022-12-13T19:46:03;2.40;96.00
65050;DHT22;52090;51.224;-2.328;2022-12-13T19:49:45;2.40;95.80
65050;DHT22;52090;51.224;-2.328;2022-12-13T19:53:28;2.40;95.90
65050;DHT22;52090;51.224;-2.328;2022-12-13T19:57:11;2.30;95.80
65050;DHT22;52090;51.224;-2.328;2022-12-13T20:01:00;2.30;95.90
65050;DHT22;52090;51.224;-2.328;2022-12-13T20:04:43;2.30;95.40
65050;DHT22;52090;51.224;-2.328;2022-12-13T20:08:25;2.30;95.80
65050;DHT22;52090;51.224;-2.328;2022-12-13T20:12:07;2.20;95.70
65050;DHT22;52090;51.224;-2.328;2022-12-13T20:15:49;2.20;95.90
65050;DHT22;52090;51.224;-2.328;2022-12-13T20:19:31;2.20;95.90
65050;DHT22;52090;51.224;-2.328;2022-12-13T20:23:13;2.20;95.90
65050;DHT22;52090;51.224;-2.328;2022-12-13T20:26:57;2.20;96.00
65050;DHT22;52090;51.224;-2.328;2022-12-13T20:30:39;2.20;96.00
65050;DHT22;52090;51.224;-2.328;2022-12-13T20:34:21;2.20;96.10
65050;DHT22;52090;51.224;-2.328;2022-12-13T20:38:03;2.20;95.90
65050;DHT22;52090;51.224;-2.328;2022-12-13T20:41:45;2.20;95.80
65050;DHT22;52090;51.224;-2.328;2022-12-13T20:45:27;2.20;96.00
65050;DHT22;52090;51.224;-2.328;2022-12-13T20:49:09;2.20;96.00
65050;DHT22;52090;51.224;-2.328;2022-12-13T20:52:51;2.20;96.10
65050;DHT22;52090;51.224;-2.328;2022-12-13T20:56:35;2.20;96.00
65050;DHT22;52090;51.224;-2.328;2022-12-13T21:00:17;2.20;96.00
65050;DHT22;52090;51.224;-2.328;2022-12-13T21:04:01;2.20;95.90
65050;DHT22;52090;51.224;-2.328;2022-12-13T21:07:43;2.10;95.90
65050;DHT22;52090;51.224;-2.328;2022-12-13T21:11:45;2.10;96.00
65050;DHT22;52090;51.224;-2.328;2022-12-13T21:15:27;2.10;95.80
65050;DHT22;52090;51.224;-2.328;2022-12-13T21:19:11;2.10;96.00
65050;DHT22;52090;51.224;-2.328;2022-12-13T21:22:53;2.10;95.80
65050;DHT22;52090;51.224;-2.328;2022-12-13T21:26:35;2.10;95.70
65050;DHT22;52090;51.224;-2.328;2022-12-13T21:30:17;2.10;95.70
65050;DHT22;52090;51.224;-2.328;2022-12-13T21:34:00;2.10;95.60
65050;DHT22;52090;51.224;-2.328;2022-12-13T21:37:42;2.10;95.90
65050;DHT22;52090;51.224;-2.328;2022-12-13T21:41:28;2.00;95.50
65050;DHT22;52090;51.224;-2.328;2022-12-13T21:45:10;2.00;95.80
65050;DHT22;52090;51.224;-2.328;2022-12-13T21:48:55;2.00;96.00
65050;DHT22;52090;51.224;-2.328;2022-12-13T21:52:37;2.00;95.80
65050;DHT22;52090;51.224;-2.328;2022-12-13T21:56:30;2.00;95.70
65050;DHT22;52090;51.224;-2.328;2022-12-13T22:00:33;1.90;95.70
65050;DHT22;52090;51.224;-2.328;2022-12-13T22:04:19;1.90;95.80
65050;DHT22;52090;51.224;-2.328;2022-12-13T22:08:01;2.00;95.90
65050;DHT22;52090;51.224;-2.328;2022-12-13T22:11:43;1.90;96.00
65050;DHT22;52090;51.224;-2.328;2022-12-13T22:15:28;2.00;96.00
65050;DHT22;52090;51.224;-2.328;2022-12-13T22:19:13;1.90;95.80
65050;DHT22;52090;51.224;-2.328;2022-12-13T22:22:55;2.00;95.90
65050;DHT22;52090;51.224;-2.328;2022-12-13T22:26:38;2.00;96.00
65050;DHT22;52090;51.224;-2.328;2022-12-13T22:30:23;2.00;95.90
65050;DHT22;52090;51.224;-2.328;2022-12-13T22:34:06;2.00;96.00
65050;DHT22;52090;51.224;-2.328;2022-12-13T22:37:51;1.90;96.10
65050;DHT22;52090;51.224;-2.328;2022-12-13T22:41:33;2.00;96.10
65050;DHT22;52090;51.224;-2.328;2022-12-13T22:45:15;2.00;96.20
65050;DHT22;52090;51.224;-2.328;2022-12-13T22:48:57;2.00;96.20
65050;DHT22;52090;51.224;-2.328;2022-12-13T22:52:39;2.00;96.10
65050;DHT22;52090;51.224;-2.328;2022-12-13T22:56:22;2.00;96.00
65050;DHT22;52090;51.224;-2.328;2022-12-13T23:00:05;2.00;95.70
65050;DHT22;52090;51.224;-2.328;2022-12-13T23:03:51;2.00;95.90
65050;DHT22;52090;51.224;-2.328;2022-12-13T23:07:34;1.90;95.90
65050;DHT22;52090;51.224;-2.328;2022-12-13T23:11:17;1.90;94.90
65050;DHT22;52090;51.224;-2.328;2022-12-13T23:15:18;1.80;95.70
65050;DHT22;52090;51.224;-2.328;2022-12-13T23:19:00;1.90;95.80
65050;DHT22;52090;51.224;-2.328;2022-12-13T23:23:03;1.80;95.80
65050;DHT22;52090;51.224;-2.328;2022-12-13T23:26:45;1.80;95.90
65050;DHT22;52090;51.224;-2.328;2022-12-13T23:30:27;1.80;95.90
65050;DHT22;52090;51.224;-2.328;2022-12-13T23:34:10;1.80;96.10
65050;DHT22;52090;51.224;-2.328;2022-12-13T23:37:52;1.80;95.80
65050;DHT22;52090;51.224;-2.328;2022-12-13T23:41:35;1.80;95.80
65050;DHT22;52090;51.224;-2.328;2022-12-13T23:45:16;1.80;95.70
65050;DHT22;52090;51.224;-2.328;2022-12-13T23:48:59;1.80;95.90
65050;DHT22;52090;51.224;-2.328;2022-12-13T23:52:41;1.80;95.90
65050;DHT22;52090;51.224;-2.328;2022-12-13T23:56:23;1.80;95.60
